Flight Track Log - Related Links

Times and Time Zones

All times are in EDT time to prevent confusion due to time zone crossing. See the DAL1297 flight status page for this flight to view local times or setup timezone preferences in your user account.

Time Position Orientation Groundspeed Altitude Reporting Facility
EDT Latitude Longitude Course Direction KTS MPH feet Rate Location/Type
Thu 04:56:46 PM 27.4000 -82.5667 North 182 209 900  Level Tampa TRACON
Thu 04:57:16 PM 27.4167 -82.5833 318° Northwest 176 203 1,700 1,864 Climbing Tampa TRACON
Thu 04:58:58 PM 27.4036 -82.7019 263° West 191 220 5,000 2,593 Climbing Miami Center
Thu 04:59:00 PM 27.5546 -82.7833 North  Level FlightAware Approximate
Thu 04:59:58 PM 27.4489 -82.7672 308° West 223 257 8,700  Level Miami Center
Thu 05:00:00 PM 27.6641 -82.7833 North  Level FlightAware Approximate
Thu 05:00:58 PM 27.5167 -82.7967 339° North 239 275 10,300  Level Miami Center
Thu 05:01:00 PM 27.7737 -82.7833 360° North  Level FlightAware Approximate
Thu 05:01:58 PM 27.6192 -82.7903 North 306 352 12,500  Level Miami Center
Thu 05:02:00 PM 27.8832 -82.7833 North  Level FlightAware Approximate
Thu 05:03:34 PM 27.7889 -82.7942 359° North 362 417 16,800  Level Jacksonville Center
Thu 05:04:34 PM 27.9036 -82.7917 North 388 447 19,100 2,150 Climbing Jacksonville Center
Thu 05:05:34 PM 28.0225 -82.7892 North 408 470 21,100 1,850 Climbing Jacksonville Center
Thu 05:06:34 PM 28.1436 -82.8172 348° North 422 486 22,800 1,800 Climbing Jacksonville Center
Thu 05:07:34 PM 28.2564 -82.8714 337° Northwest 427 491 24,700 1,850 Climbing Jacksonville Center
Thu 05:08:34 PM 28.3733 -82.9233 339° North 443 510 26,500 1,850 Climbing Jacksonville Center
Thu 05:09:34 PM 28.4858 -82.9753 338° Northwest 452 520 28,400 1,700 Climbing Jacksonville Center
Thu 05:10:34 PM 28.6006 -83.0272 338° Northwest 452 520 29,900 1,600 Climbing Jacksonville Center
Thu 05:11:34 PM 28.7153 -83.0794 338° Northwest 447 514 31,600 1,400 Climbing Jacksonville Center
Thu 05:12:34 PM 28.8281 -83.1319 338° Northwest 447 514 32,700 950 Climbing Jacksonville Center
Thu 05:13:34 PM 28.9406 -83.1819 339° North 442 509 33,500 650 Climbing Jacksonville Center
Thu 05:14:34 PM 29.0572 -83.2347 338° Northwest 437 503 34,000 250 Climbing Jacksonville Center
Thu 05:15:34 PM 29.1656 -83.2919 335° Northwest 437 503 34,000  Level Jacksonville Center
Thu 05:16:34 PM 29.2783 -83.3544 334° Northwest 437 503 34,000  Level Jacksonville Center
Thu 05:17:34 PM 29.3908 -83.4122 336° Northwest 442 509 34,000  Level Jacksonville Center
Thu 05:18:34 PM 29.5011 -83.4725 335° Northwest 442 509 34,000  Level Jacksonville Center
Thu 05:19:34 PM 29.6136 -83.5353 334° Northwest 442 509 34,000  Level Jacksonville Center
Thu 05:20:34 PM 29.7217 -83.5956 334° Northwest 442 509 34,000  Level Jacksonville Center
Thu 05:21:34 PM 29.8342 -83.6564 335° Northwest 442 509 34,000  Level Jacksonville Center
Thu 05:22:34 PM 29.9422 -83.7147 335° Northwest 442 509 34,000  Level Jacksonville Center
Thu 05:23:34 PM 30.0525 -83.7781 334° Northwest 442 509 34,000  Level Jacksonville Center
Thu 05:24:34 PM 30.1608 -83.8367 335° Northwest 442 509 34,000  Level Jacksonville Center
Thu 05:25:34 PM 30.2689 -83.8956 335° Northwest 437 503 34,000  Level Jacksonville Center
Thu 05:26:34 PM 30.3747 -83.9544 334° Northwest 432 497 34,000  Level Jacksonville Center
Thu 05:27:34 PM 30.4808 -84.0133 334° Northwest 427 491 34,000  Level Jacksonville Center
Thu 05:28:34 PM 30.5847 -84.0750 333° Northwest 421 484 34,000  Level Jacksonville Center
Thu 05:29:34 PM 30.6906 -84.1367 333° Northwest 421 484 34,000  Level Jacksonville Center
Thu 05:30:34 PM 30.7944 -84.1936 335° Northwest 416 479 34,000  Level Jacksonville Center
Thu 05:31:34 PM 30.8961 -84.2531 333° Northwest 411 473 34,000  Level Jacksonville Center
Thu 05:32:34 PM 31.0000 -84.3081 336° Northwest 406 467 34,000 -50 Level Jacksonville Center
Thu 05:33:34 PM 31.1014 -84.3678 333° Northwest 406 467 33,900 -700 Descending Jacksonville Center
Thu 05:34:34 PM 31.1989 -84.4228 334° Northwest 400 460 32,600 -1,410 Descending Jacksonville Center
Thu 05:36:20 PM 31.3931 -84.5350 334° Northwest 404 465 30,000 -940 Descending Atlanta Center
Thu 05:37:20 PM 31.4969 -84.5942 334° Northwest 410 472 30,000  Level Atlanta Center
Thu 05:38:20 PM 31.6031 -84.6558 334° Northwest 405 466 30,000  Level Atlanta Center
Thu 05:39:20 PM 31.7050 -84.7150 334° Northwest 405 466 30,000  Level Atlanta Center
Thu 05:40:20 PM 31.8092 -84.7744 334° Northwest 405 466 30,000  Level Atlanta Center
Thu 05:41:20 PM 31.9131 -84.8242 338° Northwest 405 466 30,000  Level Atlanta Center
Thu 05:42:20 PM 32.0256 -84.8619 344° North 405 466 30,000  Level Atlanta Center
Thu 05:43:20 PM 32.1381 -84.9022 343° North 411 473 30,000 -700 Level Atlanta Center
Thu 05:44:20 PM 32.2506 -84.9378 345° North 411 473 28,600 -1,000 Descending Atlanta Center
Thu 05:45:20 PM 32.3525 -84.9683 346° North 414 476 28,000 -300 Descending Atlanta Center
Thu 05:46:20 PM 32.4692 -85.0064 345° North 414 476 28,000  Level Atlanta Center
Thu 05:47:20 PM 32.5836 -85.0472 343° North 420 483 28,000 -800 Level Atlanta Center
Thu 05:48:20 PM 32.6961 -85.0828 345° North 420 483 26,400 -2,600 Descending Atlanta Center
Thu 05:49:20 PM 32.8125 -85.1289 342° North 422 486 22,800 -3,200 Descending Atlanta Center
Thu 05:50:20 PM 32.9208 -85.1622 346° North 421 484 20,000 -2,750 Descending Atlanta Center
Thu 05:51:20 PM 33.0311 -85.1933 347° North 409 471 17,300 -2,650 Descending Atlanta Center
Thu 05:52:20 PM 33.1300 -85.1128 34° Northeast 372 428 14,700 -1,700 Descending Atlanta Center
Thu 05:53:20 PM 33.1997 -85.0119 50° Northeast 377 434 13,900 -850 Descending Atlanta Center
Thu 05:54:20 PM 33.2650 -84.9233 49° Northeast 363 418 13,000 -900 Descending Atlanta Center
Thu 05:55:20 PM 33.3283 -84.8394 48° Northeast 350 403 12,100 -500 Descending Atlanta Center
Thu 05:56:20 PM 33.3914 -84.7553 48° Northeast 350 403 12,000 -50 Descending Atlanta Center
Thu 05:57:20 PM 33.4525 -84.6686 50° Northeast 339 390 12,000  Level Atlanta Center
Thu 05:58:20 PM 33.5069 -84.5994 47° Northeast 305 351 12,000 -375 Level Atlanta Center
Thu 05:59:28 PM 33.5500 -84.5167 58° Northeast 272 313 11,200 -1,254 Descending Atlanta TRACON
Thu 06:00:34 PM 33.5500 -84.4167 90° East 281 323 9,200 -1,950 Descending Atlanta TRACON
Thu 06:01:28 PM 33.5500 -84.3333 90° East 259 298 7,300 -1,826 Descending Atlanta TRACON
Thu 06:02:29 PM 33.5500 -84.2500 90° East 252 290 5,700 -1,409 Descending Atlanta TRACON
Thu 06:03:23 PM 33.5833 -84.2167 40° Northeast 202 232 4,600 -1,160 Descending Atlanta TRACON
Thu 06:04:28 PM 33.6167 -84.2667 309° West 175 201 3,400 -1,108 Descending Atlanta TRACON

Login

Don't have an account? Register now (free) for customized features, flight alerts, and more!